sensor_id;sensor_type;location;lat;lon;timestamp;temperature;humidity
58582;DHT22;44361;51.476;5.700;2023-08-20T00:00:13;17.30;99.90
58582;DHT22;44361;51.476;5.700;2023-08-20T00:02:42;17.30;99.90
58582;DHT22;44361;51.476;5.700;2023-08-20T00:05:08;17.40;99.90
58582;DHT22;44361;51.476;5.700;2023-08-20T00:07:34;17.50;99.90
58582;DHT22;44361;51.476;5.700;2023-08-20T00:10:00;17.60;99.90
58582;DHT22;44361;51.476;5.700;2023-08-20T00:12:26;17.70;99.90
58582;DHT22;44361;51.476;5.700;2023-08-20T00:14:59;17.70;99.90
58582;DHT22;44361;51.476;5.700;2023-08-20T00:17:30;17.70;99.90
58582;DHT22;44361;51.476;5.700;2023-08-20T00:19:56;17.60;99.90
58582;DHT22;44361;51.476;5.700;2023-08-20T00:22:24;17.60;99.90
58582;DHT22;44361;51.476;5.700;2023-08-20T00:24:53;17.70;99.90
58582;DHT22;44361;51.476;5.700;2023-08-20T00:27:20;17.70;99.90
58582;DHT22;44361;51.476;5.700;2023-08-20T00:29:45;17.70;99.90
58582;DHT22;44361;51.476;5.700;2023-08-20T00:32:11;17.70;99.90
58582;DHT22;44361;51.476;5.700;2023-08-20T00:34:37;17.70;99.90
58582;DHT22;44361;51.476;5.700;2023-08-20T00:37:02;17.60;99.90
58582;DHT22;44361;51.476;5.700;2023-08-20T00:39:29;17.60;99.90
58582;DHT22;44361;51.476;5.700;2023-08-20T00:41:55;17.80;99.90
58582;DHT22;44361;51.476;5.700;2023-08-20T00:44:20;17.70;99.90
58582;DHT22;44361;51.476;5.700;2023-08-20T00:46:46;17.80;99.90
58582;DHT22;44361;51.476;5.700;2023-08-20T00:49:12;17.80;99.90
58582;DHT22;44361;51.476;5.700;2023-08-20T00:51:38;17.80;99.90
58582;DHT22;44361;51.476;5.700;2023-08-20T00:54:04;17.80;99.90
58582;DHT22;44361;51.476;5.700;2023-08-20T00:56:30;17.80;99.90
58582;DHT22;44361;51.476;5.700;2023-08-20T00:58:56;17.80;99.90
58582;DHT22;44361;51.476;5.700;2023-08-20T01:01:23;17.70;99.90
58582;DHT22;44361;51.476;5.700;2023-08-20T01:03:49;17.60;99.90
58582;DHT22;44361;51.476;5.700;2023-08-20T01:06:23;17.70;99.90
58582;DHT22;44361;51.476;5.700;2023-08-20T01:09:03;17.70;99.90
58582;DHT22;44361;51.476;5.700;2023-08-20T01:11:35;17.70;99.90
58582;DHT22;44361;51.476;5.700;2023-08-20T01:14:02;17.80;99.90
58582;DHT22;44361;51.476;5.700;2023-08-20T01:16:28;17.90;99.90
58582;DHT22;44361;51.476;5.700;2023-08-20T01:18:53;17.90;99.90
58582;DHT22;44361;51.476;5.700;2023-08-20T01:21:39;18.00;99.90
58582;DHT22;44361;51.476;5.700;2023-08-20T01:24:30;18.10;99.90
58582;DHT22;44361;51.476;5.700;2023-08-20T01:29:51;18.10;99.90
58582;DHT22;44361;51.476;5.700;2023-08-20T01:32:18;18.10;99.90
58582;DHT22;44361;51.476;5.700;2023-08-20T01:34:45;18.10;99.90
58582;DHT22;44361;51.476;5.700;2023-08-20T01:37:11;18.20;99.90
58582;DHT22;44361;51.476;5.700;2023-08-20T01:39:36;18.20;99.90
58582;DHT22;44361;51.476;5.700;2023-08-20T01:42:02;18.20;99.90
58582;DHT22;44361;51.476;5.700;2023-08-20T01:44:28;18.20;99.90
58582;DHT22;44361;51.476;5.700;2023-08-20T01:46:53;18.30;99.90
58582;DHT22;44361;51.476;5.700;2023-08-20T01:49:19;18.30;99.90
58582;DHT22;44361;51.476;5.700;2023-08-20T01:51:44;18.30;99.90
58582;DHT22;44361;51.476;5.700;2023-08-20T01:54:10;18.30;99.90
58582;DHT22;44361;51.476;5.700;2023-08-20T01:56:35;18.40;99.90
58582;DHT22;44361;51.476;5.700;2023-08-20T01:59:02;18.40;99.90
58582;DHT22;44361;51.476;5.700;2023-08-20T02:01:27;18.40;99.90
58582;DHT22;44361;51.476;5.700;2023-08-20T02:03:53;18.40;99.90
58582;DHT22;44361;51.476;5.700;2023-08-20T02:06:19;18.40;99.90
58582;DHT22;44361;51.476;5.700;2023-08-20T02:08:44;18.40;99.90
58582;DHT22;44361;51.476;5.700;2023-08-20T02:11:10;18.40;99.90
58582;DHT22;44361;51.476;5.700;2023-08-20T02:13:35;18.20;99.90
58582;DHT22;44361;51.476;5.700;2023-08-20T02:16:02;18.30;99.90
58582;DHT22;44361;51.476;5.700;2023-08-20T02:18:28;18.30;99.90
58582;DHT22;44361;51.476;5.700;2023-08-20T02:20:54;18.30;99.90
58582;DHT22;44361;51.476;5.700;2023-08-20T02:23:20;18.40;99.90
58582;DHT22;44361;51.476;5.700;2023-08-20T02:25:46;18.40;99.90
58582;DHT22;44361;51.476;5.700;2023-08-20T02:28:12;18.50;99.90
58582;DHT22;44361;51.476;5.700;2023-08-20T02:30:46;18.50;99.90
58582;DHT22;44361;51.476;5.700;2023-08-20T02:33:11;18.50;99.90
58582;DHT22;44361;51.476;5.700;2023-08-20T02:35:38;18.50;99.90
58582;DHT22;44361;51.476;5.700;2023-08-20T02:38:04;18.50;99.90
58582;DHT22;44361;51.476;5.700;2023-08-20T02:40:30;18.50;99.90
58582;DHT22;44361;51.476;5.700;2023-08-20T02:42:55;18.50;99.90
58582;DHT22;44361;51.476;5.700;2023-08-20T02:45:21;18.40;99.90
58582;DHT22;44361;51.476;5.700;2023-08-20T02:47:47;18.30;99.90
58582;DHT22;44361;51.476;5.700;2023-08-20T02:50:13;18.10;99.90
58582;DHT22;44361;51.476;5.700;2023-08-20T02:52:39;18.10;99.90
58582;DHT22;44361;51.476;5.700;2023-08-20T02:55:04;17.90;99.90
58582;DHT22;44361;51.476;5.700;2023-08-20T02:57:30;17.80;99.90
58582;DHT22;44361;51.476;5.700;2023-08-20T02:59:56;17.80;99.90
58582;DHT22;44361;51.476;5.700;2023-08-20T03:02:22;17.70;99.90
58582;DHT22;44361;51.476;5.700;2023-08-20T03:04:48;17.60;99.90
58582;DHT22;44361;51.476;5.700;2023-08-20T03:07:13;17.60;99.90
58582;DHT22;44361;51.476;5.700;2023-08-20T03:09:39;17.50;99.90
58582;DHT22;44361;51.476;5.700;2023-08-20T03:12:05;17.50;99.90
58582;DHT22;44361;51.476;5.700;2023-08-20T03:14:30;17.50;99.90
58582;DHT22;44361;51.476;5.700;2023-08-20T03:16:56;17.40;99.90
58582;DHT22;44361;51.476;5.700;2023-08-20T03:19:21;17.40;99.90
58582;DHT22;44361;51.476;5.700;2023-08-20T03:21:47;17.40;99.90
58582;DHT22;44361;51.476;5.700;2023-08-20T03:24:12;17.30;99.90
58582;DHT22;44361;51.476;5.700;2023-08-20T03:26:38;17.30;99.90
58582;DHT22;44361;51.476;5.700;2023-08-20T03:29:04;17.20;99.90
58582;DHT22;44361;51.476;5.700;2023-08-20T03:31:29;17.20;99.90
58582;DHT22;44361;51.476;5.700;2023-08-20T03:33:55;17.10;99.90
58582;DHT22;44361;51.476;5.700;2023-08-20T03:36:20;17.10;99.90
58582;DHT22;44361;51.476;5.700;2023-08-20T03:38:46;17.10;99.90
58582;DHT22;44361;51.476;5.700;2023-08-20T03:41:11;17.10;99.90
58582;DHT22;44361;51.476;5.700;2023-08-20T03:43:37;17.10;99.90
58582;DHT22;44361;51.476;5.700;2023-08-20T03:46:02;17.00;99.90
58582;DHT22;44361;51.476;5.700;2023-08-20T03:48:28;16.90;99.90
58582;DHT22;44361;51.476;5.700;2023-08-20T03:50:54;16.90;99.90
58582;DHT22;44361;51.476;5.700;2023-08-20T03:53:19;16.80;99.90
58582;DHT22;44361;51.476;5.700;2023-08-20T03:55:48;16.90;99.90
58582;DHT22;44361;51.476;5.700;2023-08-20T03:58:14;17.00;99.90
58582;DHT22;44361;51.476;5.700;2023-08-20T04:00:40;16.90;99.90
58582;DHT22;44361;51.476;5.700;2023-08-20T04:03:05;16.80;99.90
58582;DHT22;44361;51.476;5.700;2023-08-20T04:05:36;16.70;99.90
58582;DHT22;44361;51.476;5.700;2023-08-20T04:08:02;16.70;99.90
58582;DHT22;44361;51.476;5.700;2023-08-20T04:10:28;16.60;99.90
58582;DHT22;44361;51.476;5.700;2023-08-20T04:12:53;16.60;99.90
58582;DHT22;44361;51.476;5.700;2023-08-20T04:15:19;16.60;99.90
58582;DHT22;44361;51.476;5.700;2023-08-20T04:17:44;16.50;99.90
58582;DHT22;44361;51.476;5.700;2023-08-20T04:20:10;16.50;99.90
58582;DHT22;44361;51.476;5.700;2023-08-20T04:22:37;16.40;99.90
58582;DHT22;44361;51.476;5.700;2023-08-20T04:25:03;16.50;99.90
58582;DHT22;44361;51.476;5.700;2023-08-20T04:27:28;16.40;99.90
58582;DHT22;44361;51.476;5.700;2023-08-20T04:29:54;16.40;99.90
58582;DHT22;44361;51.476;5.700;2023-08-20T04:32:20;16.40;99.90
58582;DHT22;44361;51.476;5.700;2023-08-20T04:34:45;16.50;99.90
58582;DHT22;44361;51.476;5.700;2023-08-20T04:37:13;16.40;99.90
58582;DHT22;44361;51.476;5.700;2023-08-20T04:39:39;16.40;99.90
58582;DHT22;44361;51.476;5.700;2023-08-20T04:42:05;16.30;99.90
58582;DHT22;44361;51.476;5.700;2023-08-20T04:44:31;16.40;99.90
58582;DHT22;44361;51.476;5.700;2023-08-20T04:46:56;16.30;99.90
58582;DHT22;44361;51.476;5.700;2023-08-20T04:49:22;16.40;99.90
58582;DHT22;44361;51.476;5.700;2023-08-20T04:51:47;16.40;99.90
58582;DHT22;44361;51.476;5.700;2023-08-20T04:54:13;16.40;99.90
58582;DHT22;44361;51.476;5.700;2023-08-20T04:56:38;16.30;99.90
58582;DHT22;44361;51.476;5.700;2023-08-20T04:59:04;16.30;99.90
58582;DHT22;44361;51.476;5.700;2023-08-20T05:01:29;16.30;99.90
58582;DHT22;44361;51.476;5.700;2023-08-20T05:03:55;16.40;99.90
58582;DHT22;44361;51.476;5.700;2023-08-20T05:06:20;16.40;99.90
58582;DHT22;44361;51.476;5.700;2023-08-20T05:08:46;16.50;99.90
58582;DHT22;44361;51.476;5.700;2023-08-20T05:11:11;16.60;99.90
58582;DHT22;44361;51.476;5.700;2023-08-20T05:13:37;16.60;99.90
58582;DHT22;44361;51.476;5.700;2023-08-20T05:16:03;16.60;99.90
58582;DHT22;44361;51.476;5.700;2023-08-20T05:18:28;16.70;99.90
58582;DHT22;44361;51.476;5.700;2023-08-20T05:20:54;16.70;99.90
58582;DHT22;44361;51.476;5.700;2023-08-20T05:23:19;16.70;99.90
58582;DHT22;44361;51.476;5.700;2023-08-20T05:25:45;16.70;99.90
58582;DHT22;44361;51.476;5.700;2023-08-20T05:28:10;16.80;99.90
58582;DHT22;44361;51.476;5.700;2023-08-20T05:30:36;16.90;99.90
58582;DHT22;44361;51.476;5.700;2023-08-20T05:33:01;17.00;99.90
58582;DHT22;44361;51.476;5.700;2023-08-20T05:35:27;17.00;99.90
58582;DHT22;44361;51.476;5.700;2023-08-20T05:37:53;17.10;99.90
58582;DHT22;44361;51.476;5.700;2023-08-20T05:40:19;17.10;99.90
58582;DHT22;44361;51.476;5.700;2023-08-20T05:42:46;17.20;99.90
58582;DHT22;44361;51.476;5.700;2023-08-20T05:45:11;17.20;99.90
58582;DHT22;44361;51.476;5.700;2023-08-20T05:47:37;17.40;99.90
58582;DHT22;44361;51.476;5.700;2023-08-20T05:50:03;17.50;99.90
58582;DHT22;44361;51.476;5.700;2023-08-20T05:52:28;17.70;99.90
58582;DHT22;44361;51.476;5.700;2023-08-20T05:54:54;18.10;99.90
58582;DHT22;44361;51.476;5.700;2023-08-20T05:57:19;18.40;99.90
58582;DHT22;44361;51.476;5.700;2023-08-20T05:59:45;18.50;99.90
58582;DHT22;44361;51.476;5.700;2023-08-20T06:02:13;18.50;99.90
58582;DHT22;44361;51.476;5.700;2023-08-20T06:04:40;18.60;99.90
58582;DHT22;44361;51.476;5.700;2023-08-20T06:07:06;18.80;99.90
58582;DHT22;44361;51.476;5.700;2023-08-20T06:09:31;19.30;99.90
58582;DHT22;44361;51.476;5.700;2023-08-20T06:11:57;19.80;99.90
58582;DHT22;44361;51.476;5.700;2023-08-20T06:14:22;20.30;99.90
58582;DHT22;44361;51.476;5.700;2023-08-20T06:16:48;20.70;99.90
58582;DHT22;44361;51.476;5.700;2023-08-20T06:19:14;21.10;99.90
58582;DHT22;44361;51.476;5.700;2023-08-20T06:21:39;21.30;99.90
58582;DHT22;44361;51.476;5.700;2023-08-20T06:24:05;21.60;99.90
58582;DHT22;44361;51.476;5.700;2023-08-20T06:26:30;21.90;99.90
58582;DHT22;44361;51.476;5.700;2023-08-20T06:28:56;22.10;99.90
58582;DHT22;44361;51.476;5.700;2023-08-20T06:31:21;22.30;99.90
58582;DHT22;44361;51.476;5.700;2023-08-20T06:33:48;22.40;99.90
58582;DHT22;44361;51.476;5.700;2023-08-20T06:36:13;22.40;99.90
58582;DHT22;44361;51.476;5.700;2023-08-20T06:38:39;22.50;99.90
58582;DHT22;44361;51.476;5.700;2023-08-20T06:41:04;22.60;99.90
58582;DHT22;44361;51.476;5.700;2023-08-20T06:43:30;22.60;99.90
58582;DHT22;44361;51.476;5.700;2023-08-20T06:45:56;22.70;99.90
58582;DHT22;44361;51.476;5.700;2023-08-20T06:48:22;22.70;99.90
58582;DHT22;44361;51.476;5.700;2023-08-20T06:50:50;22.40;99.90
58582;DHT22;44361;51.476;5.700;2023-08-20T06:53:15;22.40;99.90
58582;DHT22;44361;51.476;5.700;2023-08-20T06:55:41;22.40;99.90
58582;DHT22;44361;51.476;5.700;2023-08-20T06:58:06;22.30;99.90
58582;DHT22;44361;51.476;5.700;2023-08-20T07:00:32;22.10;99.90
58582;DHT22;44361;51.476;5.700;2023-08-20T07:02:57;22.00;99.90
58582;DHT22;44361;51.476;5.700;2023-08-20T07:05:23;21.80;99.90
58582;DHT22;44361;51.476;5.700;2023-08-20T07:07:48;21.70;99.90
58582;DHT22;44361;51.476;5.700;2023-08-20T07:10:14;21.60;99.90
58582;DHT22;44361;51.476;5.700;2023-08-20T07:12:40;21.70;99.90
58582;DHT22;44361;51.476;5.700;2023-08-20T07:15:06;21.60;99.90
58582;DHT22;44361;51.476;5.700;2023-08-20T07:17:32;21.70;99.90
58582;DHT22;44361;51.476;5.700;2023-08-20T07:19:57;21.80;99.90
58582;DHT22;44361;51.476;5.700;2023-08-20T07:22:23;21.80;99.90
58582;DHT22;44361;51.476;5.700;2023-08-20T07:24:48;21.80;99.90
58582;DHT22;44361;51.476;5.700;2023-08-20T07:27:14;21.90;99.90
58582;DHT22;44361;51.476;5.700;2023-08-20T07:29:41;21.90;99.90
58582;DHT22;44361;51.476;5.700;2023-08-20T07:32:06;21.90;99.90
58582;DHT22;44361;51.476;5.700;2023-08-20T07:34:33;22.00;99.90
58582;DHT22;44361;51.476;5.700;2023-08-20T07:36:59;22.10;99.90
58582;DHT22;44361;51.476;5.700;2023-08-20T07:39:25;22.30;99.90
58582;DHT22;44361;51.476;5.700;2023-08-20T07:41:50;22.50;99.90
58582;DHT22;44361;51.476;5.700;2023-08-20T07:44:16;22.50;99.90
58582;DHT22;44361;51.476;5.700;2023-08-20T07:46:42;22.60;99.90
58582;DHT22;44361;51.476;5.700;2023-08-20T07:49:07;22.70;99.90
58582;DHT22;44361;51.476;5.700;2023-08-20T07:51:34;22.90;99.90
58582;DHT22;44361;51.476;5.700;2023-08-20T07:53:59;23.10;99.90
58582;DHT22;44361;51.476;5.700;2023-08-20T07:56:26;23.20;99.90
58582;DHT22;44361;51.476;5.700;2023-08-20T07:58:51;22.90;99.90
58582;DHT22;44361;51.476;5.700;2023-08-20T08:01:17;22.90;99.90
58582;DHT22;44361;51.476;5.700;2023-08-20T08:03:42;23.00;99.90
58582;DHT22;44361;51.476;5.700;2023-08-20T08:06:08;23.00;99.90
58582;DHT22;44361;51.476;5.700;2023-08-20T08:08:33;23.20;99.90
58582;DHT22;44361;51.476;5.700;2023-08-20T08:10:59;23.30;99.90
58582;DHT22;44361;51.476;5.700;2023-08-20T08:13:25;23.30;99.90
58582;DHT22;44361;51.476;5.700;2023-08-20T08:15:51;23.40;99.90
58582;DHT22;44361;51.476;5.700;2023-08-20T08:18:18;23.60;99.90
58582;DHT22;44361;51.476;5.700;2023-08-20T08:20:44;23.60;99.90
58582;DHT22;44361;51.476;5.700;2023-08-20T08:23:09;23.40;99.90
58582;DHT22;44361;51.476;5.700;2023-08-20T08:25:35;23.40;99.90
58582;DHT22;44361;51.476;5.700;2023-08-20T08:28:00;23.40;99.90
58582;DHT22;44361;51.476;5.700;2023-08-20T08:30:26;23.50;99.90
58582;DHT22;44361;51.476;5.700;2023-08-20T08:32:51;23.70;99.90
58582;DHT22;44361;51.476;5.700;2023-08-20T08:35:17;23.80;99.90
58582;DHT22;44361;51.476;5.700;2023-08-20T08:37:43;23.90;99.90
58582;DHT22;44361;51.476;5.700;2023-08-20T08:40:09;23.60;99.90
58582;DHT22;44361;51.476;5.700;2023-08-20T08:42:34;23.70;99.90
58582;DHT22;44361;51.476;5.700;2023-08-20T08:45:00;23.90;99.90
58582;DHT22;44361;51.476;5.700;2023-08-20T08:47:26;24.00;99.90
58582;DHT22;44361;51.476;5.700;2023-08-20T08:49:52;24.20;99.90
58582;DHT22;44361;51.476;5.700;2023-08-20T08:52:21;24.20;99.90
58582;DHT22;44361;51.476;5.700;2023-08-20T08:54:48;24.20;99.90
58582;DHT22;44361;51.476;5.700;2023-08-20T08:57:14;24.30;99.90
58582;DHT22;44361;51.476;5.700;2023-08-20T08:59:40;24.50;99.90
58582;DHT22;44361;51.476;5.700;2023-08-20T09:02:09;24.50;99.90
58582;DHT22;44361;51.476;5.700;2023-08-20T09:04:38;24.50;99.90
58582;DHT22;44361;51.476;5.700;2023-08-20T09:07:04;24.60;99.90
58582;DHT22;44361;51.476;5.700;2023-08-20T09:09:30;24.60;99.90
58582;DHT22;44361;51.476;5.700;2023-08-20T09:11:56;24.70;99.90
58582;DHT22;44361;51.476;5.700;2023-08-20T09:14:29;24.70;99.90
58582;DHT22;44361;51.476;5.700;2023-08-20T09:16:59;24.70;99.90
58582;DHT22;44361;51.476;5.700;2023-08-20T09:19:28;24.70;99.90
58582;DHT22;44361;51.476;5.700;2023-08-20T09:21:53;24.80;99.90
58582;DHT22;44361;51.476;5.700;2023-08-20T09:24:39;24.90;99.90
58582;DHT22;44361;51.476;5.700;2023-08-20T09:27:05;24.60;99.90
58582;DHT22;44361;51.476;5.700;2023-08-20T09:29:44;24.50;99.90
58582;DHT22;44361;51.476;5.700;2023-08-20T09:32:17;24.60;99.90
58582;DHT22;44361;51.476;5.700;2023-08-20T09:34:43;24.90;99.90
58582;DHT22;44361;51.476;5.700;2023-08-20T09:37:13;25.00;99.90
58582;DHT22;44361;51.476;5.700;2023-08-20T09:39:39;25.30;99.90
58582;DHT22;44361;51.476;5.700;2023-08-20T09:42:06;25.40;99.90
58582;DHT22;44361;51.476;5.700;2023-08-20T09:44:34;25.30;99.90
58582;DHT22;44361;51.476;5.700;2023-08-20T09:49:37;25.20;99.90
58582;DHT22;44361;51.476;5.700;2023-08-20T09:52:09;25.40;99.90
58582;DHT22;44361;51.476;5.700;2023-08-20T09:57:07;25.60;98.30
58582;DHT22;44361;51.476;5.700;2023-08-20T09:59:37;25.70;99.90
58582;DHT22;44361;51.476;5.700;2023-08-20T10:02:03;25.80;99.00
58582;DHT22;44361;51.476;5.700;2023-08-20T10:04:29;25.90;98.70
58582;DHT22;44361;51.476;5.700;2023-08-20T10:06:55;25.90;98.70
58582;DHT22;44361;51.476;5.700;2023-08-20T10:09:22;25.90;98.90
58582;DHT22;44361;51.476;5.700;2023-08-20T10:11:48;26.00;98.00
58582;DHT22;44361;51.476;5.700;2023-08-20T10:14:14;26.00;96.70
58582;DHT22;44361;51.476;5.700;2023-08-20T10:16:40;26.20;96.30
58582;DHT22;44361;51.476;5.700;2023-08-20T10:19:06;26.20;96.50
58582;DHT22;44361;51.476;5.700;2023-08-20T10:21:32;26.20;96.00
58582;DHT22;44361;51.476;5.700;2023-08-20T10:24:03;26.20;97.00
58582;DHT22;44361;51.476;5.700;2023-08-20T10:26:29;25.80;95.30
58582;DHT22;44361;51.476;5.700;2023-08-20T10:31:59;26.10;97.90
58582;DHT22;44361;51.476;5.700;2023-08-20T10:34:36;26.30;96.30
58582;DHT22;44361;51.476;5.700;2023-08-20T10:37:26;26.30;96.40
58582;DHT22;44361;51.476;5.700;2023-08-20T10:39:56;26.40;96.90
58582;DHT22;44361;51.476;5.700;2023-08-20T10:42:28;26.30;95.00
58582;DHT22;44361;51.476;5.700;2023-08-20T10:45:06;26.20;94.00
58582;DHT22;44361;51.476;5.700;2023-08-20T10:50:03;26.30;95.00
58582;DHT22;44361;51.476;5.700;2023-08-20T10:52:28;26.50;95.10
58582;DHT22;44361;51.476;5.700;2023-08-20T10:54:56;26.00;93.20
58582;DHT22;44361;51.476;5.700;2023-08-20T10:57:21;25.90;92.40
58582;DHT22;44361;51.476;5.700;2023-08-20T10:59:57;26.20;92.50
58582;DHT22;44361;51.476;5.700;2023-08-20T11:02:23;26.40;91.80
58582;DHT22;44361;51.476;5.700;2023-08-20T11:04:50;26.60;90.70
58582;DHT22;44361;51.476;5.700;2023-08-20T11:07:19;26.70;91.30
58582;DHT22;44361;51.476;5.700;2023-08-20T11:09:45;26.70;91.10
58582;DHT22;44361;51.476;5.700;2023-08-20T11:12:15;26.70;93.00
58582;DHT22;44361;51.476;5.700;2023-08-20T11:14:40;26.90;90.00
58582;DHT22;44361;51.476;5.700;2023-08-20T11:17:07;26.80;90.60
58582;DHT22;44361;51.476;5.700;2023-08-20T11:19:33;26.70;90.90
58582;DHT22;44361;51.476;5.700;2023-08-20T11:21:59;26.80;90.30
58582;DHT22;44361;51.476;5.700;2023-08-20T11:24:28;26.90;90.10
58582;DHT22;44361;51.476;5.700;2023-08-20T11:26:55;26.80;90.20
58582;DHT22;44361;51.476;5.700;2023-08-20T11:29:20;26.80;90.60
58582;DHT22;44361;51.476;5.700;2023-08-20T11:31:47;26.70;87.40
58582;DHT22;44361;51.476;5.700;2023-08-20T11:34:13;26.70;88.00
58582;DHT22;44361;51.476;5.700;2023-08-20T11:36:39;26.70;87.30
58582;DHT22;44361;51.476;5.700;2023-08-20T11:39:06;26.90;90.10
58582;DHT22;44361;51.476;5.700;2023-08-20T11:41:35;27.20;88.40
58582;DHT22;44361;51.476;5.700;2023-08-20T11:44:01;27.30;90.90
58582;DHT22;44361;51.476;5.700;2023-08-20T11:46:26;27.30;86.40
58582;DHT22;44361;51.476;5.700;2023-08-20T11:49:06;27.40;88.50
58582;DHT22;44361;51.476;5.700;2023-08-20T11:51:47;27.40;89.90
58582;DHT22;44361;51.476;5.700;2023-08-20T11:54:16;27.70;91.50
58582;DHT22;44361;51.476;5.700;2023-08-20T11:59:14;27.50;89.60
58582;DHT22;44361;51.476;5.700;2023-08-20T12:01:40;27.60;88.40
58582;DHT22;44361;51.476;5.700;2023-08-20T12:04:10;27.50;85.00
58582;DHT22;44361;51.476;5.700;2023-08-20T12:06:36;27.30;85.70
58582;DHT22;44361;51.476;5.700;2023-08-20T12:09:21;27.30;88.00
58582;DHT22;44361;51.476;5.700;2023-08-20T12:11:51;27.00;87.80
58582;DHT22;44361;51.476;5.700;2023-08-20T12:14:18;26.80;90.00
58582;DHT22;44361;51.476;5.700;2023-08-20T12:16:43;26.80;84.80
58582;DHT22;44361;51.476;5.700;2023-08-20T12:19:09;26.80;85.70
58582;DHT22;44361;51.476;5.700;2023-08-20T12:21:35;26.90;87.60
58582;DHT22;44361;51.476;5.700;2023-08-20T12:24:00;27.20;87.10
58582;DHT22;44361;51.476;5.700;2023-08-20T12:26:26;27.20;85.70
58582;DHT22;44361;51.476;5.700;2023-08-20T12:28:51;27.10;85.20
58582;DHT22;44361;51.476;5.700;2023-08-20T12:31:17;27.00;85.00
58582;DHT22;44361;51.476;5.700;2023-08-20T12:33:42;26.90;85.20
58582;DHT22;44361;51.476;5.700;2023-08-20T12:36:08;27.00;84.30
58582;DHT22;44361;51.476;5.700;2023-08-20T12:38:33;27.00;85.60
58582;DHT22;44361;51.476;5.700;2023-08-20T12:41:00;27.20;86.10
58582;DHT22;44361;51.476;5.700;2023-08-20T12:43:26;27.40;85.60
58582;DHT22;44361;51.476;5.700;2023-08-20T12:45:52;27.10;84.80
58582;DHT22;44361;51.476;5.700;2023-08-20T12:48:17;27.00;86.10
58582;DHT22;44361;51.476;5.700;2023-08-20T12:50:43;27.20;88.50
58582;DHT22;44361;51.476;5.700;2023-08-20T12:53:08;27.20;86.30
58582;DHT22;44361;51.476;5.700;2023-08-20T12:55:34;27.30;88.70
58582;DHT22;44361;51.476;5.700;2023-08-20T12:57:59;27.40;84.10
58582;DHT22;44361;51.476;5.700;2023-08-20T13:00:26;27.40;89.70
58582;DHT22;44361;51.476;5.700;2023-08-20T13:02:53;27.50;86.00
58582;DHT22;44361;51.476;5.700;2023-08-20T13:05:20;27.50;85.30
58582;DHT22;44361;51.476;5.700;2023-08-20T13:07:46;27.50;85.70
58582;DHT22;44361;51.476;5.700;2023-08-20T13:10:12;27.50;88.10
58582;DHT22;44361;51.476;5.700;2023-08-20T13:12:41;27.50;84.90
58582;DHT22;44361;51.476;5.700;2023-08-20T13:15:07;27.40;85.00
58582;DHT22;44361;51.476;5.700;2023-08-20T13:17:33;27.50;88.10
58582;DHT22;44361;51.476;5.700;2023-08-20T13:19:59;27.60;85.10
58582;DHT22;44361;51.476;5.700;2023-08-20T13:22:24;27.90;83.70
58582;DHT22;44361;51.476;5.700;2023-08-20T13:24:50;28.10;86.40
58582;DHT22;44361;51.476;5.700;2023-08-20T13:27:15;28.30;83.90
58582;DHT22;44361;51.476;5.700;2023-08-20T13:29:41;28.10;85.80
58582;DHT22;44361;51.476;5.700;2023-08-20T13:32:07;27.80;81.80
58582;DHT22;44361;51.476;5.700;2023-08-20T13:34:34;27.60;83.30
58582;DHT22;44361;51.476;5.700;2023-08-20T13:37:06;27.80;84.30
58582;DHT22;44361;51.476;5.700;2023-08-20T13:39:31;27.90;83.10
58582;DHT22;44361;51.476;5.700;2023-08-20T13:41:58;28.10;85.90
58582;DHT22;44361;51.476;5.700;2023-08-20T13:44:24;28.00;81.30
58582;DHT22;44361;51.476;5.700;2023-08-20T13:46:49;28.00;84.90
58582;DHT22;44361;51.476;5.700;2023-08-20T13:49:15;27.90;88.00
58582;DHT22;44361;51.476;5.700;2023-08-20T13:51:40;28.00;84.40
58582;DHT22;44361;51.476;5.700;2023-08-20T13:54:06;28.10;81.90
58582;DHT22;44361;51.476;5.700;2023-08-20T13:56:32;28.20;81.90
58582;DHT22;44361;51.476;5.700;2023-08-20T13:58:58;28.20;85.10
58582;DHT22;44361;51.476;5.700;2023-08-20T14:01:30;28.10;81.80
58582;DHT22;44361;51.476;5.700;2023-08-20T14:03:59;27.80;81.90
58582;DHT22;44361;51.476;5.700;2023-08-20T14:06:24;27.80;84.60
58582;DHT22;44361;51.476;5.700;2023-08-20T14:08:50;28.10;87.70
58582;DHT22;44361;51.476;5.700;2023-08-20T14:11:15;28.20;82.80
58582;DHT22;44361;51.476;5.700;2023-08-20T14:13:41;28.30;84.60
58582;DHT22;44361;51.476;5.700;2023-08-20T14:16:08;28.20;83.70
58582;DHT22;44361;51.476;5.700;2023-08-20T14:18:33;28.20;83.70
58582;DHT22;44361;51.476;5.700;2023-08-20T14:20:59;28.40;82.80
58582;DHT22;44361;51.476;5.700;2023-08-20T14:23:25;28.20;81.90
58582;DHT22;44361;51.476;5.700;2023-08-20T14:25:50;28.30;82.20
58582;DHT22;44361;51.476;5.700;2023-08-20T14:28:16;28.30;80.70
58582;DHT22;44361;51.476;5.700;2023-08-20T14:30:41;28.20;81.70
58582;DHT22;44361;51.476;5.700;2023-08-20T14:33:07;28.40;84.20
58582;DHT22;44361;51.476;5.700;2023-08-20T14:35:33;28.70;86.70
58582;DHT22;44361;51.476;5.700;2023-08-20T14:37:58;29.00;80.90
58582;DHT22;44361;51.476;5.700;2023-08-20T14:40:24;29.40;79.40
58582;DHT22;44361;51.476;5.700;2023-08-20T14:42:50;29.40;77.50
58582;DHT22;44361;51.476;5.700;2023-08-20T14:45:16;29.40;77.90
58582;DHT22;44361;51.476;5.700;2023-08-20T14:47:41;29.50;80.10
58582;DHT22;44361;51.476;5.700;2023-08-20T14:50:07;29.60;78.60
58582;DHT22;44361;51.476;5.700;2023-08-20T14:52:34;29.40;77.90
58582;DHT22;44361;51.476;5.700;2023-08-20T14:55:00;29.30;80.60
58582;DHT22;44361;51.476;5.700;2023-08-20T14:57:25;29.00;80.30
58582;DHT22;44361;51.476;5.700;2023-08-20T14:59:51;29.10;78.10
58582;DHT22;44361;51.476;5.700;2023-08-20T15:02:17;28.80;78.50
58582;DHT22;44361;51.476;5.700;2023-08-20T15:04:43;28.60;81.50
58582;DHT22;44361;51.476;5.700;2023-08-20T15:07:08;28.70;78.80
58582;DHT22;44361;51.476;5.700;2023-08-20T15:09:34;28.90;80.80
58582;DHT22;44361;51.476;5.700;2023-08-20T15:12:00;29.20;82.10
58582;DHT22;44361;51.476;5.700;2023-08-20T15:14:26;29.20;78.60
58582;DHT22;44361;51.476;5.700;2023-08-20T15:16:51;29.60;80.70
58582;DHT22;44361;51.476;5.700;2023-08-20T15:19:17;29.40;79.80
58582;DHT22;44361;51.476;5.700;2023-08-20T15:21:42;29.20;77.50
58582;DHT22;44361;51.476;5.700;2023-08-20T15:24:08;29.00;80.90
58582;DHT22;44361;51.476;5.700;2023-08-20T15:26:33;29.10;79.00
58582;DHT22;44361;51.476;5.700;2023-08-20T15:28:59;28.90;79.90
58582;DHT22;44361;51.476;5.700;2023-08-20T15:31:24;28.50;80.00
58582;DHT22;44361;51.476;5.700;2023-08-20T15:33:50;28.50;85.80
58582;DHT22;44361;51.476;5.700;2023-08-20T15:36:17;28.40;79.80
58582;DHT22;44361;51.476;5.700;2023-08-20T15:38:42;28.30;81.90
58582;DHT22;44361;51.476;5.700;2023-08-20T15:41:08;28.30;84.60